createdAt,value
2022-12-13T00:01:50.963Z,100918.91
2022-12-13T00:06:06.316Z,100921.66
2022-12-13T00:10:18.022Z,100913.19
2022-12-13T00:14:30.072Z,100920.13
2022-12-13T00:18:41.693Z,100917.63
2022-12-13T00:22:53.998Z,100923.69
2022-12-13T00:27:06.140Z,100920.38
2022-12-13T00:31:53.430Z,100916.47
2022-12-13T00:35:51.092Z,100914.53
2022-12-13T00:40:04.146Z,100919.91
2022-12-13T00:44:15.950Z,100904.72
2022-12-13T00:48:27.514Z,100899.72
2022-12-13T00:52:39.186Z,100899.84
2022-12-13T00:56:51.544Z,100901.50
2022-12-13T01:01:09.089Z,100901.19
2022-12-13T01:05:47.223Z,100909.75
2022-12-13T01:09:52.455Z,100900.75
2022-12-13T01:14:04.093Z,100898.50
2022-12-13T01:18:41.326Z,100907.09
2022-12-13T01:22:52.865Z,100894.59
2022-12-13T01:27:04.944Z,100892.94
2022-12-13T01:31:18.882Z,100899.72
2022-12-13T01:35:30.454Z,100897.75
2022-12-13T01:39:42.029Z,100892.78
2022-12-13T01:43:56.685Z,100908.53
2022-12-13T01:48:17.492Z,100907.94
2022-12-13T01:52:33.518Z,100906.97
2022-12-13T01:56:50.062Z,100896.97
2022-12-13T02:01:01.861Z,100900.44
2022-12-13T02:05:36.258Z,100889.09
2022-12-13T02:09:49.272Z,100895.91
2022-12-13T02:14:09.808Z,100892.56
2022-12-13T02:18:35.199Z,100898.06
2022-12-13T02:23:07.543Z,100886.19
2022-12-13T02:27:30.881Z,100890.72
2022-12-13T02:31:53.182Z,100892.50
2022-12-13T02:36:10.843Z,100884.06
2022-12-13T02:40:30.002Z,100890.44
2022-12-13T02:44:57.381Z,100887.19
2022-12-13T02:49:11.065Z,100878.34
2022-12-13T02:53:24.461Z,100893.72
2022-12-13T02:57:38.731Z,100875.59
2022-12-13T03:02:09.511Z,100877.97
2022-12-13T03:06:33.527Z,100885.19
2022-12-13T03:11:05.797Z,100871.09
2022-12-13T03:15:27.008Z,100876.81
2022-12-13T03:19:38.613Z,100882.63
2022-12-13T03:23:50.245Z,100870.84
2022-12-13T03:28:02.658Z,100868.09
2022-12-13T03:32:14.551Z,100865.97
2022-12-13T03:36:26.457Z,100866.81
2022-12-13T03:40:38.119Z,100870.28
2022-12-13T03:44:49.777Z,100868.44
2022-12-13T03:49:01.673Z,100868.56
2022-12-13T03:53:22.224Z,100870.84
2022-12-13T03:57:35.304Z,100851.59
2022-12-13T04:01:46.879Z,100870.44
2022-12-13T04:05:58.515Z,100860.31
2022-12-13T04:10:26.218Z,100870.69
2022-12-13T04:14:38.251Z,100867.72
2022-12-13T04:18:49.996Z,100872.41
2022-12-13T04:23:01.672Z,100873.63
2022-12-13T04:27:22.204Z,100870.44
2022-12-13T04:31:33.878Z,100863.75
2022-12-13T04:35:45.453Z,100855.31
2022-12-13T04:40:01.019Z,100863.06
2022-12-13T04:44:27.614Z,100858.50
2022-12-13T04:48:41.482Z,100854.22
2022-12-13T04:52:53.148Z,100864.22
2022-12-13T04:57:11.278Z,100854.56
2022-12-13T05:01:22.866Z,100856.91
2022-12-13T05:05:34.519Z,100855.31
2022-12-13T05:09:46.089Z,100847.44
2022-12-13T05:13:57.616Z,100845.06
2022-12-13T05:18:11.105Z,100855.66
2022-12-13T05:22:22.829Z,100834.31
2022-12-13T05:26:34.328Z,100841.94
2022-12-13T05:30:45.852Z,100837.66
2022-12-13T05:34:57.475Z,100832.41
2022-12-13T05:39:27.929Z,100828.81
2022-12-13T05:43:43.167Z,100834.78
2022-12-13T05:47:55.400Z,100821.91
2022-12-13T05:52:07.016Z,100831.69
2022-12-13T05:56:22.390Z,100821.34
2022-12-13T06:00:35.127Z,100812.28
2022-12-13T06:04:46.808Z,100805.25
2022-12-13T06:08:59.708Z,100807.34
2022-12-13T06:13:21.787Z,100818.84
2022-12-13T06:17:42.893Z,100810.25
2022-12-13T06:21:55.119Z,100812.75
2022-12-13T06:26:08.096Z,100810.97
2022-12-13T06:30:19.719Z,100807.34
2022-12-13T06:34:36.153Z,100803.88
2022-12-13T06:38:47.896Z,100814.50
2022-12-13T06:42:59.520Z,100811.16
2022-12-13T06:47:12.856Z,100813.22
2022-12-13T06:51:43.098Z,100819.28
2022-12-13T06:55:54.692Z,100806.66
2022-12-13T07:00:07.014Z,100805.72
2022-12-13T07:04:29.272Z,100814.00
2022-12-13T07:08:44.247Z,100827.78
2022-12-13T07:12:56.770Z,100826.28
2022-12-13T07:17:08.419Z,100816.03
2022-12-13T07:21:21.905Z,100813.53
2022-12-13T07:25:34.201Z,100823.94
2022-12-13T07:29:45.642Z,100814.16
2022-12-13T07:33:57.089Z,100820.38
2022-12-13T07:38:10.705Z,100822.16
2022-12-13T07:42:22.160Z,100828.25
2022-12-13T07:46:34.215Z,100825.38
2022-12-13T07:50:46.392Z,100832.28
2022-12-13T07:55:07.336Z,100836.31
2022-12-13T07:59:28.474Z,100843.94
2022-12-13T08:03:40.572Z,100850.44
2022-12-13T08:07:52.093Z,100846.38
2022-12-13T08:12:05.187Z,100850.66
2022-12-13T08:16:26.542Z,100860.09
2022-12-13T08:20:39.945Z,100853.94
2022-12-13T08:24:51.793Z,100866.03
2022-12-13T08:29:04.201Z,100863.72
2022-12-13T08:33:16.889Z,100864.72
2022-12-13T08:37:28.383Z,100855.75
2022-12-13T08:41:40.453Z,100863.91
2022-12-13T08:45:51.931Z,100858.84
2022-12-13T08:50:04.532Z,100853.75
2022-12-13T08:54:30.909Z,100868.72
2022-12-13T08:58:43.319Z,100874.97
2022-12-13T09:02:57.852Z,100869.63
2022-12-13T09:07:09.527Z,100861.47
2022-12-13T09:11:33.115Z,100858.03
2022-12-13T09:15:48.762Z,100865.94
2022-12-13T09:20:00.355Z,100872.59
2022-12-13T09:24:24.248Z,100869.53
2022-12-13T09:28:37.243Z,100874.94
2022-12-13T09:32:50.465Z,100870.50
2022-12-13T09:37:02.132Z,100878.50
2022-12-13T09:41:31.091Z,100881.13
2022-12-13T09:45:45.644Z,100889.03
2022-12-13T09:50:00.159Z,100877.50
2022-12-13T09:54:19.470Z,100877.47
2022-12-13T09:58:34.905Z,100864.09
2022-12-13T10:02:49.227Z,100870.53
2022-12-13T10:07:01.946Z,100863.78
2022-12-13T10:11:15.041Z,100851.91
2022-12-13T10:15:28.174Z,100846.94
2022-12-13T10:19:41.210Z,100848.31
2022-12-13T10:24:23.101Z,100842.22
2022-12-13T10:28:30.927Z,100845.97
2022-12-13T10:33:04.812Z,100834.22
2022-12-13T10:37:30.619Z,100844.38
2022-12-13T10:41:42.153Z,100827.34
2022-12-13T10:46:01.271Z,100817.91
2022-12-13T10:50:28.495Z,100824.41
2022-12-13T10:54:48.511Z,100813.03
2022-12-13T10:59:37.313Z,100809.03
2022-12-13T11:04:02.408Z,100814.25
2022-12-13T11:08:15.672Z,100794.47
2022-12-13T11:12:27.867Z,100793.22
2022-12-13T11:16:41.564Z,100795.78
2022-12-13T11:21:02.714Z,100789.44
2022-12-13T11:25:25.294Z,100789.16
2022-12-13T11:29:55.757Z,100796.03
2022-12-13T11:34:34.684Z,100776.66
2022-12-13T11:39:10.485Z,100776.47
2022-12-13T11:43:40.699Z,100790.19
2022-12-13T11:48:05.330Z,100770.75
2022-12-13T11:52:35.416Z,100766.31
2022-12-13T11:56:47.349Z,100753.78
2022-12-13T12:01:13.014Z,100737.63
2022-12-13T12:05:24.578Z,100755.47
2022-12-13T12:09:50.469Z,100744.34
2022-12-13T12:14:14.502Z,100744.47
2022-12-13T12:18:26.246Z,100741.75
2022-12-13T12:23:01.082Z,100746.31
2022-12-13T12:27:22.653Z,100747.16
2022-12-13T12:31:58.026Z,100747.44
2022-12-13T12:36:34.055Z,100743.38
2022-12-13T12:45:59.712Z,100751.97
2022-12-13T12:50:44.110Z,100759.91
2022-12-13T12:55:04.069Z,100757.41
2022-12-13T12:59:39.111Z,100759.06
2022-12-13T13:03:53.628Z,100739.63
2022-12-13T13:08:15.268Z,100740.97
2022-12-13T13:12:29.559Z,100743.31
2022-12-13T13:16:42.192Z,100734.72
2022-12-13T13:21:25.721Z,100730.13
2022-12-13T13:25:54.016Z,100713.91
2022-12-13T13:30:21.241Z,100723.03
2022-12-13T13:34:38.806Z,100727.50
2022-12-13T13:38:52.947Z,100714.75
2022-12-13T13:43:10.553Z,100716.41
2022-12-13T13:47:24.832Z,100700.53
2022-12-13T13:56:49.992Z,100699.56
2022-12-13T14:01:08.604Z,100693.13
2022-12-13T14:05:52.727Z,100677.91
2022-12-13T14:10:13.524Z,100678.59
2022-12-13T14:15:01.930Z,100677.91
2022-12-13T14:19:37.742Z,100686.13
2022-12-13T14:24:19.311Z,100689.91
2022-12-13T14:28:51.962Z,100688.91
2022-12-13T14:33:03.570Z,100677.97
2022-12-13T14:37:38.339Z,100674.03
2022-12-13T14:41:56.646Z,100673.00
2022-12-13T14:46:14.517Z,100678.09
2022-12-13T14:50:28.114Z,100669.78
2022-12-13T14:54:50.429Z,100676.97
2022-12-13T14:59:13.285Z,100682.16
2022-12-13T15:03:27.655Z,100677.84
2022-12-13T15:07:41.538Z,100676.34
2022-12-13T15:11:53.545Z,100668.53
2022-12-13T15:16:25.484Z,100675.59
2022-12-13T15:20:39.803Z,100667.69
2022-12-13T15:24:53.009Z,100661.19
2022-12-13T15:29:24.280Z,100640.88
2022-12-13T15:33:42.608Z,100647.00
2022-12-13T15:37:59.814Z,100640.34
2022-12-13T15:42:27.156Z,100629.97
2022-12-13T15:46:38.783Z,100613.47
2022-12-13T15:50:50.374Z,100628.97
2022-12-13T15:55:05.039Z,100616.78
2022-12-13T15:59:29.073Z,100609.63
2022-12-13T16:03:40.511Z,100620.53
2022-12-13T16:07:56.367Z,100606.00
2022-12-13T16:12:22.477Z,100594.97
2022-12-13T16:16:34.225Z,100611.13
2022-12-13T16:20:46.461Z,100589.31
2022-12-13T16:24:59.523Z,100587.50
2022-12-13T16:29:16.264Z,100590.34
2022-12-13T16:33:28.171Z,100583.88
2022-12-13T16:37:39.705Z,100590.66
2022-12-13T16:41:52.864Z,100576.03
2022-12-13T16:47:10.110Z,100582.38
2022-12-13T16:50:38.869Z,100573.13
2022-12-13T16:54:51.592Z,100563.84
2022-12-13T16:59:03.160Z,100560.56
2022-12-13T17:03:15.777Z,100557.59
2022-12-13T17:07:27.467Z,100553.31
2022-12-13T17:11:39.088Z,100548.38
2022-12-13T17:15:59.018Z,100559.94
2022-12-13T17:20:17.426Z,100552.13
2022-12-13T17:24:30.743Z,100562.66
2022-12-13T17:28:42.296Z,100549.13
2022-12-13T17:32:54.751Z,100539.50
2022-12-13T17:37:10.418Z,100565.16
2022-12-13T17:41:22.387Z,100568.47
2022-12-13T17:45:33.969Z,100556.19
2022-12-13T17:49:46.020Z,100557.53
2022-12-13T17:53:57.678Z,100560.72
2022-12-13T17:58:09.346Z,100547.00
2022-12-13T18:02:23.064Z,100550.19
2022-12-13T18:06:34.964Z,100574.78
2022-12-13T18:11:23.513Z,100564.00
2022-12-13T18:15:28.604Z,100552.13
2022-12-13T18:19:40.543Z,100557.25
2022-12-13T18:23:55.782Z,100555.94
2022-12-13T18:28:09.516Z,100540.28
2022-12-13T18:32:21.096Z,100543.59
2022-12-13T18:36:33.180Z,100546.09
2022-12-13T18:40:44.764Z,100554.22
2022-12-13T18:44:56.274Z,100536.69
2022-12-13T18:49:09.616Z,100527.81
2022-12-13T18:53:21.214Z,100536.09
2022-12-13T18:57:32.904Z,100521.19
2022-12-13T19:01:44.651Z,100517.59
2022-12-13T19:05:57.337Z,100531.66
2022-12-13T19:10:09.871Z,100522.84
2022-12-13T19:14:26.835Z,100512.47
2022-12-13T19:18:38.800Z,100499.22
2022-12-13T19:22:50.445Z,100515.25
2022-12-13T19:27:02.019Z,100524.28
2022-12-13T19:31:15.576Z,100524.44
2022-12-13T19:35:27.225Z,100513.44
2022-12-13T19:39:38.868Z,100490.09
2022-12-13T19:43:53.024Z,100498.69
2022-12-13T19:48:04.949Z,100480.19
2022-12-13T19:52:16.569Z,100495.22
2022-12-13T19:56:28.140Z,100474.78
2022-12-13T20:00:41.523Z,100483.41
2022-12-13T20:04:53.194Z,100483.56
2022-12-13T20:09:04.760Z,100457.03
2022-12-13T20:13:16.334Z,100448.91
2022-12-13T20:17:28.179Z,100451.25
2022-12-13T20:21:39.761Z,100449.88
2022-12-13T20:26:02.456Z,100436.25
2022-12-13T20:30:14.241Z,100438.53
2022-12-13T20:34:26.643Z,100432.28
2022-12-13T20:38:39.187Z,100435.63
2022-12-13T20:42:51.482Z,100421.81
2022-12-13T20:47:03.162Z,100421.88
2022-12-13T20:51:17.335Z,100407.50
2022-12-13T20:55:29.036Z,100405.09
2022-12-13T20:59:40.959Z,100375.75
2022-12-13T21:03:58.451Z,100376.66
2022-12-13T21:08:28.660Z,100370.41
2022-12-13T21:12:40.251Z,100365.97
2022-12-13T21:16:57.261Z,100357.91
2022-12-13T21:21:09.513Z,100365.31
2022-12-13T21:25:21.080Z,100360.72
2022-12-13T21:29:32.652Z,100353.94
2022-12-13T21:33:44.248Z,100342.59
2022-12-13T21:37:57.780Z,100346.25
2022-12-13T21:42:14.187Z,100350.09
2022-12-13T21:46:47.526Z,100335.59
2022-12-13T21:50:59.647Z,100353.41
2022-12-13T21:55:37.962Z,100322.03
2022-12-13T21:59:43.265Z,100335.72
2022-12-13T22:03:55.942Z,100342.03
2022-12-13T22:08:07.625Z,100315.78
2022-12-13T22:12:31.596Z,100327.97
2022-12-13T22:16:43.252Z,100334.22
2022-12-13T22:20:58.746Z,100323.69
2022-12-13T22:25:10.723Z,100329.94
2022-12-13T22:29:22.614Z,100356.34
2022-12-13T22:33:34.250Z,100334.06
2022-12-13T22:37:48.723Z,100312.84
2022-12-13T22:42:00.564Z,100299.66
2022-12-13T22:46:14.911Z,100294.25
2022-12-13T22:50:29.495Z,100288.66
2022-12-13T22:54:41.154Z,100284.06
2022-12-13T22:59:01.961Z,100280.78
2022-12-13T23:03:13.592Z,100264.81
2022-12-13T23:07:25.192Z,100244.66
2022-12-13T23:11:55.469Z,100265.28
2022-12-13T23:16:07.520Z,100261.19
2022-12-13T23:20:19.194Z,100262.31
2022-12-13T23:24:31.118Z,100256.75
2022-12-13T23:28:44.652Z,100251.97
2022-12-13T23:32:56.252Z,100251.47
2022-12-13T23:37:07.869Z,100234.84
2022-12-13T23:41:25.429Z,100241.09
2022-12-13T23:45:38.873Z,100245.03
2022-12-13T23:49:50.433Z,100240.28
2022-12-13T23:54:02.608Z,100234.03
2022-12-13T23:58:17.067Z,100226.94
